sensor_id;sensor_type;location;lat;lon;timestamp;temperature;humidity
22112;DHT22;11222;50.872;4.312;2023-02-07T00:01:59;4.40;99.90
22112;DHT22;11222;50.872;4.312;2023-02-07T00:04:24;4.30;99.90
22112;DHT22;11222;50.872;4.312;2023-02-07T00:06:50;4.30;99.90
22112;DHT22;11222;50.872;4.312;2023-02-07T00:09:16;4.20;99.90
22112;DHT22;11222;50.872;4.312;2023-02-07T00:11:42;4.10;99.90
22112;DHT22;11222;50.872;4.312;2023-02-07T00:14:09;4.10;99.90
22112;DHT22;11222;50.872;4.312;2023-02-07T00:16:35;4.00;99.90
22112;DHT22;11222;50.872;4.312;2023-02-07T00:19:01;4.00;99.90
22112;DHT22;11222;50.872;4.312;2023-02-07T00:21:27;4.00;99.90
22112;DHT22;11222;50.872;4.312;2023-02-07T00:23:54;3.90;99.90
22112;DHT22;11222;50.872;4.312;2023-02-07T00:26:22;3.90;99.90
22112;DHT22;11222;50.872;4.312;2023-02-07T00:28:49;3.90;99.90
22112;DHT22;11222;50.872;4.312;2023-02-07T00:31:19;3.80;99.90
22112;DHT22;11222;50.872;4.312;2023-02-07T00:33:45;3.70;99.90
22112;DHT22;11222;50.872;4.312;2023-02-07T00:36:18;3.70;99.90
22112;DHT22;11222;50.872;4.312;2023-02-07T00:38:45;3.70;99.90
22112;DHT22;11222;50.872;4.312;2023-02-07T00:41:11;3.60;99.90
22112;DHT22;11222;50.872;4.312;2023-02-07T00:43:44;3.70;99.90
22112;DHT22;11222;50.872;4.312;2023-02-07T00:46:10;3.60;99.90
22112;DHT22;11222;50.872;4.312;2023-02-07T00:48:36;3.60;99.90
22112;DHT22;11222;50.872;4.312;2023-02-07T00:51:05;3.60;99.90
22112;DHT22;11222;50.872;4.312;2023-02-07T00:53:31;3.60;99.90
22112;DHT22;11222;50.872;4.312;2023-02-07T00:55:57;3.60;99.90
22112;DHT22;11222;50.872;4.312;2023-02-07T00:58:23;3.50;99.90
22112;DHT22;11222;50.872;4.312;2023-02-07T01:00:49;3.50;99.90
22112;DHT22;11222;50.872;4.312;2023-02-07T01:03:15;3.60;99.90
22112;DHT22;11222;50.872;4.312;2023-02-07T01:05:41;3.60;99.90
22112;DHT22;11222;50.872;4.312;2023-02-07T01:08:06;3.60;99.90
22112;DHT22;11222;50.872;4.312;2023-02-07T01:10:32;3.60;99.90
22112;DHT22;11222;50.872;4.312;2023-02-07T01:12:58;3.70;99.90
22112;DHT22;11222;50.872;4.312;2023-02-07T01:15:24;3.60;99.90
22112;DHT22;11222;50.872;4.312;2023-02-07T01:17:50;3.50;99.90
22112;DHT22;11222;50.872;4.312;2023-02-07T01:20:18;3.50;99.90
22112;DHT22;11222;50.872;4.312;2023-02-07T01:22:44;3.40;99.90
22112;DHT22;11222;50.872;4.312;2023-02-07T01:25:10;3.30;99.90
22112;DHT22;11222;50.872;4.312;2023-02-07T01:27:36;3.30;99.90
22112;DHT22;11222;50.872;4.312;2023-02-07T01:30:03;3.30;99.90
22112;DHT22;11222;50.872;4.312;2023-02-07T01:32:31;3.20;99.90
22112;DHT22;11222;50.872;4.312;2023-02-07T01:34:57;3.30;99.90
22112;DHT22;11222;50.872;4.312;2023-02-07T01:37:22;3.30;99.90
22112;DHT22;11222;50.872;4.312;2023-02-07T01:39:48;3.30;99.90
22112;DHT22;11222;50.872;4.312;2023-02-07T01:42:15;3.30;99.90
22112;DHT22;11222;50.872;4.312;2023-02-07T01:47:10;3.30;99.90
22112;DHT22;11222;50.872;4.312;2023-02-07T01:49:36;3.20;99.90
22112;DHT22;11222;50.872;4.312;2023-02-07T01:52:09;3.30;99.90
22112;DHT22;11222;50.872;4.312;2023-02-07T01:54:36;3.30;99.90
22112;DHT22;11222;50.872;4.312;2023-02-07T01:57:04;3.30;99.90
22112;DHT22;11222;50.872;4.312;2023-02-07T01:59:31;3.30;99.90
22112;DHT22;11222;50.872;4.312;2023-02-07T02:02:00;3.20;99.90
22112;DHT22;11222;50.872;4.312;2023-02-07T02:04:27;3.20;99.90
22112;DHT22;11222;50.872;4.312;2023-02-07T02:06:53;3.20;99.90
22112;DHT22;11222;50.872;4.312;2023-02-07T02:09:19;3.10;99.90
22112;DHT22;11222;50.872;4.312;2023-02-07T02:14:39;3.00;99.90
22112;DHT22;11222;50.872;4.312;2023-02-07T02:17:15;3.10;99.90
22112;DHT22;11222;50.872;4.312;2023-02-07T02:20:15;3.10;99.90
22112;DHT22;11222;50.872;4.312;2023-02-07T02:34:43;3.30;99.90
22112;DHT22;11222;50.872;4.312;2023-02-07T02:37:22;3.30;99.90
22112;DHT22;11222;50.872;4.312;2023-02-07T02:44:58;3.30;99.90
22112;DHT22;11222;50.872;4.312;2023-02-07T02:47:26;3.30;99.90
22112;DHT22;11222;50.872;4.312;2023-02-07T02:49:53;3.20;99.90
22112;DHT22;11222;50.872;4.312;2023-02-07T02:52:19;3.20;99.90
22112;DHT22;11222;50.872;4.312;2023-02-07T02:54:45;3.00;99.90
22112;DHT22;11222;50.872;4.312;2023-02-07T03:00:13;2.90;99.90
22112;DHT22;11222;50.872;4.312;2023-02-07T03:05:40;2.80;99.90
22112;DHT22;11222;50.872;4.312;2023-02-07T03:18:50;2.50;99.90
22112;DHT22;11222;50.872;4.312;2023-02-07T03:21:42;2.50;99.90
22112;DHT22;11222;50.872;4.312;2023-02-07T03:24:30;2.50;99.90
22112;DHT22;11222;50.872;4.312;2023-02-07T03:26:59;2.50;99.90
22112;DHT22;11222;50.872;4.312;2023-02-07T03:29:28;2.50;99.90
22112;DHT22;11222;50.872;4.312;2023-02-07T03:31:57;2.50;99.90
22112;DHT22;11222;50.872;4.312;2023-02-07T03:34:30;2.50;99.90
22112;DHT22;11222;50.872;4.312;2023-02-07T03:37:07;2.60;99.90
22112;DHT22;11222;50.872;4.312;2023-02-07T03:39:35;2.70;99.90
22112;DHT22;11222;50.872;4.312;2023-02-07T03:42:06;2.70;99.90
22112;DHT22;11222;50.872;4.312;2023-02-07T03:44:35;2.70;99.90
22112;DHT22;11222;50.872;4.312;2023-02-07T03:47:03;2.60;99.90
22112;DHT22;11222;50.872;4.312;2023-02-07T03:49:28;2.50;99.90
22112;DHT22;11222;50.872;4.312;2023-02-07T03:51:54;2.40;99.90
22112;DHT22;11222;50.872;4.312;2023-02-07T03:54:19;2.40;99.90
22112;DHT22;11222;50.872;4.312;2023-02-07T03:56:45;2.40;99.90
22112;DHT22;11222;50.872;4.312;2023-02-07T03:59:11;2.40;99.90
22112;DHT22;11222;50.872;4.312;2023-02-07T04:01:36;2.30;99.90
22112;DHT22;11222;50.872;4.312;2023-02-07T04:04:09;2.30;99.90
22112;DHT22;11222;50.872;4.312;2023-02-07T04:06:35;2.20;99.90
22112;DHT22;11222;50.872;4.312;2023-02-07T04:09:01;2.10;99.90
22112;DHT22;11222;50.872;4.312;2023-02-07T04:11:27;2.00;99.90
22112;DHT22;11222;50.872;4.312;2023-02-07T04:13:53;2.00;99.90
22112;DHT22;11222;50.872;4.312;2023-02-07T04:16:19;1.90;99.90
22112;DHT22;11222;50.872;4.312;2023-02-07T04:18:44;2.00;99.90
22112;DHT22;11222;50.872;4.312;2023-02-07T04:21:11;2.10;99.90
22112;DHT22;11222;50.872;4.312;2023-02-07T04:23:37;2.20;99.90
22112;DHT22;11222;50.872;4.312;2023-02-07T04:26:02;2.20;99.90
22112;DHT22;11222;50.872;4.312;2023-02-07T04:28:28;2.40;99.90
22112;DHT22;11222;50.872;4.312;2023-02-07T04:30:54;2.30;99.90
22112;DHT22;11222;50.872;4.312;2023-02-07T04:33:21;2.10;99.90
22112;DHT22;11222;50.872;4.312;2023-02-07T04:35:56;2.20;99.90
22112;DHT22;11222;50.872;4.312;2023-02-07T04:38:23;2.00;99.90
22112;DHT22;11222;50.872;4.312;2023-02-07T04:40:49;1.90;99.90
22112;DHT22;11222;50.872;4.312;2023-02-07T04:43:15;1.90;99.90
22112;DHT22;11222;50.872;4.312;2023-02-07T04:45:40;1.80;99.90
22112;DHT22;11222;50.872;4.312;2023-02-07T04:48:06;1.80;99.90
22112;DHT22;11222;50.872;4.312;2023-02-07T04:50:32;1.90;99.90
22112;DHT22;11222;50.872;4.312;2023-02-07T04:52:57;2.10;99.90
22112;DHT22;11222;50.872;4.312;2023-02-07T04:55:23;2.00;99.90
22112;DHT22;11222;50.872;4.312;2023-02-07T04:57:49;1.90;99.90
22112;DHT22;11222;50.872;4.312;2023-02-07T05:00:15;1.90;99.90
22112;DHT22;11222;50.872;4.312;2023-02-07T05:02:42;1.90;99.90
22112;DHT22;11222;50.872;4.312;2023-02-07T05:05:09;1.80;99.90
22112;DHT22;11222;50.872;4.312;2023-02-07T05:07:34;1.80;99.90
22112;DHT22;11222;50.872;4.312;2023-02-07T05:10:00;1.60;99.90
22112;DHT22;11222;50.872;4.312;2023-02-07T05:12:26;1.40;99.90
22112;DHT22;11222;50.872;4.312;2023-02-07T05:14:52;1.40;99.90
22112;DHT22;11222;50.872;4.312;2023-02-07T05:17:17;1.40;99.90
22112;DHT22;11222;50.872;4.312;2023-02-07T05:19:44;1.30;99.90
22112;DHT22;11222;50.872;4.312;2023-02-07T05:22:10;1.20;99.90
22112;DHT22;11222;50.872;4.312;2023-02-07T05:24:35;1.30;99.90
22112;DHT22;11222;50.872;4.312;2023-02-07T05:27:01;1.30;99.90
22112;DHT22;11222;50.872;4.312;2023-02-07T05:29:27;1.50;99.90
22112;DHT22;11222;50.872;4.312;2023-02-07T05:31:53;1.60;99.90
22112;DHT22;11222;50.872;4.312;2023-02-07T05:34:37;1.60;99.90
22112;DHT22;11222;50.872;4.312;2023-02-07T05:37:03;1.70;99.90
22112;DHT22;11222;50.872;4.312;2023-02-07T05:39:28;1.90;99.90
22112;DHT22;11222;50.872;4.312;2023-02-07T05:41:54;2.00;99.90
22112;DHT22;11222;50.872;4.312;2023-02-07T05:44:19;2.00;99.90
22112;DHT22;11222;50.872;4.312;2023-02-07T05:46:46;2.00;99.90
22112;DHT22;11222;50.872;4.312;2023-02-07T05:49:12;2.10;99.90
22112;DHT22;11222;50.872;4.312;2023-02-07T05:51:38;2.10;99.90
22112;DHT22;11222;50.872;4.312;2023-02-07T05:54:03;2.10;99.90
22112;DHT22;11222;50.872;4.312;2023-02-07T05:56:29;2.20;99.90
22112;DHT22;11222;50.872;4.312;2023-02-07T05:58:55;2.10;99.90
22112;DHT22;11222;50.872;4.312;2023-02-07T06:01:21;2.10;99.90
22112;DHT22;11222;50.872;4.312;2023-02-07T06:03:46;1.90;99.90
22112;DHT22;11222;50.872;4.312;2023-02-07T06:06:12;1.80;99.90
22112;DHT22;11222;50.872;4.312;2023-02-07T06:08:37;1.90;99.90
22112;DHT22;11222;50.872;4.312;2023-02-07T06:11:03;1.90;99.90
22112;DHT22;11222;50.872;4.312;2023-02-07T06:13:29;1.90;99.90
22112;DHT22;11222;50.872;4.312;2023-02-07T06:15:55;2.00;99.90
22112;DHT22;11222;50.872;4.312;2023-02-07T06:18:20;1.90;99.90
22112;DHT22;11222;50.872;4.312;2023-02-07T06:20:49;1.90;99.90
22112;DHT22;11222;50.872;4.312;2023-02-07T06:23:15;2.00;99.90
22112;DHT22;11222;50.872;4.312;2023-02-07T06:25:40;2.00;99.90
22112;DHT22;11222;50.872;4.312;2023-02-07T06:28:06;2.00;99.90
22112;DHT22;11222;50.872;4.312;2023-02-07T06:30:32;2.00;99.90
22112;DHT22;11222;50.872;4.312;2023-02-07T06:32:57;2.00;99.90
22112;DHT22;11222;50.872;4.312;2023-02-07T06:35:23;2.00;99.90
22112;DHT22;11222;50.872;4.312;2023-02-07T06:37:49;1.90;99.90
22112;DHT22;11222;50.872;4.312;2023-02-07T06:40:15;1.90;99.90
22112;DHT22;11222;50.872;4.312;2023-02-07T06:42:40;1.90;99.90
22112;DHT22;11222;50.872;4.312;2023-02-07T06:45:06;1.90;99.90
22112;DHT22;11222;50.872;4.312;2023-02-07T06:47:32;1.90;99.90
22112;DHT22;11222;50.872;4.312;2023-02-07T06:49:58;1.80;99.90
22112;DHT22;11222;50.872;4.312;2023-02-07T06:52:23;1.90;99.90
22112;DHT22;11222;50.872;4.312;2023-02-07T06:54:49;1.80;99.90
22112;DHT22;11222;50.872;4.312;2023-02-07T06:57:15;1.80;99.90
22112;DHT22;11222;50.872;4.312;2023-02-07T06:59:41;1.90;99.90
22112;DHT22;11222;50.872;4.312;2023-02-07T07:02:06;1.90;99.90
22112;DHT22;11222;50.872;4.312;2023-02-07T07:04:32;1.90;99.90
22112;DHT22;11222;50.872;4.312;2023-02-07T07:06:57;2.00;99.90
22112;DHT22;11222;50.872;4.312;2023-02-07T07:09:23;2.00;99.90
22112;DHT22;11222;50.872;4.312;2023-02-07T07:11:49;1.90;99.90
22112;DHT22;11222;50.872;4.312;2023-02-07T07:14:15;1.90;99.90
22112;DHT22;11222;50.872;4.312;2023-02-07T07:16:41;1.90;99.90
22112;DHT22;11222;50.872;4.312;2023-02-07T07:19:07;2.00;99.90
22112;DHT22;11222;50.872;4.312;2023-02-07T07:21:32;1.90;99.90
22112;DHT22;11222;50.872;4.312;2023-02-07T07:23:58;1.80;99.90
22112;DHT22;11222;50.872;4.312;2023-02-07T07:26:24;1.80;99.90
22112;DHT22;11222;50.872;4.312;2023-02-07T07:28:49;1.80;99.90
22112;DHT22;11222;50.872;4.312;2023-02-07T07:31:15;1.70;99.90
22112;DHT22;11222;50.872;4.312;2023-02-07T07:33:41;1.70;99.90
22112;DHT22;11222;50.872;4.312;2023-02-07T07:36:07;1.60;99.90
22112;DHT22;11222;50.872;4.312;2023-02-07T07:38:33;1.50;99.90
22112;DHT22;11222;50.872;4.312;2023-02-07T07:40:59;1.40;99.90
22112;DHT22;11222;50.872;4.312;2023-02-07T07:43:26;1.60;99.90
22112;DHT22;11222;50.872;4.312;2023-02-07T07:45:53;1.70;99.90
22112;DHT22;11222;50.872;4.312;2023-02-07T07:48:20;1.70;99.90
22112;DHT22;11222;50.872;4.312;2023-02-07T07:50:46;1.60;99.90
22112;DHT22;11222;50.872;4.312;2023-02-07T07:53:12;1.20;99.90
22112;DHT22;11222;50.872;4.312;2023-02-07T07:55:38;0.90;99.90
22112;DHT22;11222;50.872;4.312;2023-02-07T07:58:04;0.70;99.90
22112;DHT22;11222;50.872;4.312;2023-02-07T08:00:29;0.70;99.90
22112;DHT22;11222;50.872;4.312;2023-02-07T08:02:55;0.90;99.90
22112;DHT22;11222;50.872;4.312;2023-02-07T08:05:21;0.90;99.90
22112;DHT22;11222;50.872;4.312;2023-02-07T08:07:46;0.80;99.90
22112;DHT22;11222;50.872;4.312;2023-02-07T08:10:12;0.80;99.90
22112;DHT22;11222;50.872;4.312;2023-02-07T08:12:38;0.70;99.90
22112;DHT22;11222;50.872;4.312;2023-02-07T08:15:04;0.80;99.90
22112;DHT22;11222;50.872;4.312;2023-02-07T08:17:32;0.80;99.90
22112;DHT22;11222;50.872;4.312;2023-02-07T08:19:58;0.80;99.90
22112;DHT22;11222;50.872;4.312;2023-02-07T08:22:23;0.70;99.90
22112;DHT22;11222;50.872;4.312;2023-02-07T08:24:49;0.70;99.90
22112;DHT22;11222;50.872;4.312;2023-02-07T08:27:15;0.70;99.90
22112;DHT22;11222;50.872;4.312;2023-02-07T08:29:41;0.70;99.90
22112;DHT22;11222;50.872;4.312;2023-02-07T08:32:06;0.70;99.90
22112;DHT22;11222;50.872;4.312;2023-02-07T08:34:32;0.80;99.90
22112;DHT22;11222;50.872;4.312;2023-02-07T08:37:05;0.90;99.90
22112;DHT22;11222;50.872;4.312;2023-02-07T08:39:33;0.90;99.90
22112;DHT22;11222;50.872;4.312;2023-02-07T08:41:59;0.90;99.90
22112;DHT22;11222;50.872;4.312;2023-02-07T08:44:25;0.90;99.90
22112;DHT22;11222;50.872;4.312;2023-02-07T08:46:51;0.90;99.90
22112;DHT22;11222;50.872;4.312;2023-02-07T08:49:17;0.90;99.90
22112;DHT22;11222;50.872;4.312;2023-02-07T08:51:42;0.90;99.90
22112;DHT22;11222;50.872;4.312;2023-02-07T08:54:08;1.20;99.90
22112;DHT22;11222;50.872;4.312;2023-02-07T08:56:34;1.50;99.90
22112;DHT22;11222;50.872;4.312;2023-02-07T08:59:00;1.60;99.90
22112;DHT22;11222;50.872;4.312;2023-02-07T09:01:25;1.60;99.90
22112;DHT22;11222;50.872;4.312;2023-02-07T09:03:54;1.60;99.90
22112;DHT22;11222;50.872;4.312;2023-02-07T09:06:22;1.70;99.90
22112;DHT22;11222;50.872;4.312;2023-02-07T09:08:48;1.70;99.90
22112;DHT22;11222;50.872;4.312;2023-02-07T09:11:14;1.80;99.90
22112;DHT22;11222;50.872;4.312;2023-02-07T09:13:40;2.00;99.90
22112;DHT22;11222;50.872;4.312;2023-02-07T09:16:07;2.00;99.90
22112;DHT22;11222;50.872;4.312;2023-02-07T09:18:33;1.70;99.90
22112;DHT22;11222;50.872;4.312;2023-02-07T09:20:59;1.50;99.90
22112;DHT22;11222;50.872;4.312;2023-02-07T09:23:25;1.20;99.90
22112;DHT22;11222;50.872;4.312;2023-02-07T09:25:52;1.10;99.90
22112;DHT22;11222;50.872;4.312;2023-02-07T09:28:19;1.30;99.90
22112;DHT22;11222;50.872;4.312;2023-02-07T09:30:46;1.40;99.90
22112;DHT22;11222;50.872;4.312;2023-02-07T09:33:14;1.40;99.90
22112;DHT22;11222;50.872;4.312;2023-02-07T09:35:42;1.40;99.90
22112;DHT22;11222;50.872;4.312;2023-02-07T09:38:13;1.50;99.90
22112;DHT22;11222;50.872;4.312;2023-02-07T09:40:40;1.70;99.90
22112;DHT22;11222;50.872;4.312;2023-02-07T09:45:41;2.00;99.90
22112;DHT22;11222;50.872;4.312;2023-02-07T09:48:18;2.10;99.90
22112;DHT22;11222;50.872;4.312;2023-02-07T09:50:56;2.40;99.90
22112;DHT22;11222;50.872;4.312;2023-02-07T09:56:01;2.50;99.90
22112;DHT22;11222;50.872;4.312;2023-02-07T09:58:51;2.60;99.90
22112;DHT22;11222;50.872;4.312;2023-02-07T10:01:21;2.60;99.90
22112;DHT22;11222;50.872;4.312;2023-02-07T10:04:05;2.70;99.90
22112;DHT22;11222;50.872;4.312;2023-02-07T10:06:34;2.60;99.90
22112;DHT22;11222;50.872;4.312;2023-02-07T10:09:01;2.70;99.90
22112;DHT22;11222;50.872;4.312;2023-02-07T10:14:45;2.80;99.90
22112;DHT22;11222;50.872;4.312;2023-02-07T10:18:27;2.70;99.90
22112;DHT22;11222;50.872;4.312;2023-02-07T10:25:56;2.90;99.90
22112;DHT22;11222;50.872;4.312;2023-02-07T10:31:14;3.10;99.90
22112;DHT22;11222;50.872;4.312;2023-02-07T10:33:59;3.10;99.90
22112;DHT22;11222;50.872;4.312;2023-02-07T10:36:25;3.20;99.90
22112;DHT22;11222;50.872;4.312;2023-02-07T10:41:42;3.40;99.90
22112;DHT22;11222;50.872;4.312;2023-02-07T10:44:12;3.50;99.90
22112;DHT22;11222;50.872;4.312;2023-02-07T10:46:41;3.70;99.90
22112;DHT22;11222;50.872;4.312;2023-02-07T10:49:20;3.80;99.90
22112;DHT22;11222;50.872;4.312;2023-02-07T10:51:46;3.90;99.90
22112;DHT22;11222;50.872;4.312;2023-02-07T10:54:15;3.90;99.90
22112;DHT22;11222;50.872;4.312;2023-02-07T10:56:53;3.90;99.90
22112;DHT22;11222;50.872;4.312;2023-02-07T11:01:52;4.10;99.90
22112;DHT22;11222;50.872;4.312;2023-02-07T11:04:37;4.20;99.90
22112;DHT22;11222;50.872;4.312;2023-02-07T11:07:05;4.30;99.90
22112;DHT22;11222;50.872;4.312;2023-02-07T11:09:34;4.40;99.90
22112;DHT22;11222;50.872;4.312;2023-02-07T11:12:13;4.50;99.90
22112;DHT22;11222;50.872;4.312;2023-02-07T11:14:40;4.80;99.90
22112;DHT22;11222;50.872;4.312;2023-02-07T11:17:05;4.70;99.90
22112;DHT22;11222;50.872;4.312;2023-02-07T11:19:31;4.70;99.90
22112;DHT22;11222;50.872;4.312;2023-02-07T11:22:19;4.80;99.90
22112;DHT22;11222;50.872;4.312;2023-02-07T11:24:45;4.80;99.90
22112;DHT22;11222;50.872;4.312;2023-02-07T11:27:14;5.50;99.90
22112;DHT22;11222;50.872;4.312;2023-02-07T11:32:15;9.20;99.90
22112;DHT22;11222;50.872;4.312;2023-02-07T11:35:05;12.50;99.90
22112;DHT22;11222;50.872;4.312;2023-02-07T11:37:38;15.40;99.90
22112;DHT22;11222;50.872;4.312;2023-02-07T11:40:23;16.60;90.80
22112;DHT22;11222;50.872;4.312;2023-02-07T11:43:05;14.60;91.90
22112;DHT22;11222;50.872;4.312;2023-02-07T11:45:32;15.10;94.10
22112;DHT22;11222;50.872;4.312;2023-02-07T11:48:01;16.20;82.60
22112;DHT22;11222;50.872;4.312;2023-02-07T11:50:32;17.80;75.90
22112;DHT22;11222;50.872;4.312;2023-02-07T11:52:59;16.80;74.80
22112;DHT22;11222;50.872;4.312;2023-02-07T11:55:39;13.50;87.10
22112;DHT22;11222;50.872;4.312;2023-02-07T11:58:32;13.00;92.40
22112;DHT22;11222;50.872;4.312;2023-02-07T12:01:02;11.30;98.30
22112;DHT22;11222;50.872;4.312;2023-02-07T12:03:33;10.00;99.90
22112;DHT22;11222;50.872;4.312;2023-02-07T12:06:05;9.30;99.90
22112;DHT22;11222;50.872;4.312;2023-02-07T12:08:34;9.00;99.90
22112;DHT22;11222;50.872;4.312;2023-02-07T12:13:35;7.60;99.90
22112;DHT22;11222;50.872;4.312;2023-02-07T12:16:09;8.90;99.90
22112;DHT22;11222;50.872;4.312;2023-02-07T12:19:29;9.40;99.90
22112;DHT22;11222;50.872;4.312;2023-02-07T12:27:15;7.60;99.90
22112;DHT22;11222;50.872;4.312;2023-02-07T12:36:08;9.20;99.90
22112;DHT22;11222;50.872;4.312;2023-02-07T12:38:52;8.20;99.90
22112;DHT22;11222;50.872;4.312;2023-02-07T12:41:24;8.40;99.90
22112;DHT22;11222;50.872;4.312;2023-02-07T12:57:08;7.10;99.90
22112;DHT22;11222;50.872;4.312;2023-02-07T13:14:20;7.00;99.90
22112;DHT22;11222;50.872;4.312;2023-02-07T13:22:46;6.60;99.90
22112;DHT22;11222;50.872;4.312;2023-02-07T13:25:22;6.60;99.90
22112;DHT22;11222;50.872;4.312;2023-02-07T13:27:51;6.60;99.90
22112;DHT22;11222;50.872;4.312;2023-02-07T13:30:20;6.60;99.90
22112;DHT22;11222;50.872;4.312;2023-02-07T13:32:47;6.60;99.90
22112;DHT22;11222;50.872;4.312;2023-02-07T13:35:18;6.60;99.90
22112;DHT22;11222;50.872;4.312;2023-02-07T13:40:45;6.60;99.90
22112;DHT22;11222;50.872;4.312;2023-02-07T13:43:32;6.60;99.90
22112;DHT22;11222;50.872;4.312;2023-02-07T13:46:18;6.50;99.90
22112;DHT22;11222;50.872;4.312;2023-02-07T13:48:58;6.60;99.90
22112;DHT22;11222;50.872;4.312;2023-02-07T13:52:02;6.40;99.90
22112;DHT22;11222;50.872;4.312;2023-02-07T13:57:01;6.50;99.90
22112;DHT22;11222;50.872;4.312;2023-02-07T14:02:47;6.60;99.90
22112;DHT22;11222;50.872;4.312;2023-02-07T14:05:28;6.80;99.90
22112;DHT22;11222;50.872;4.312;2023-02-07T14:07:58;6.80;99.90
22112;DHT22;11222;50.872;4.312;2023-02-07T14:10:40;6.70;99.90
22112;DHT22;11222;50.872;4.312;2023-02-07T14:13:39;6.70;99.90
22112;DHT22;11222;50.872;4.312;2023-02-07T14:16:10;6.60;99.90
22112;DHT22;11222;50.872;4.312;2023-02-07T14:18:38;6.60;99.90
22112;DHT22;11222;50.872;4.312;2023-02-07T14:24:03;6.60;99.90
22112;DHT22;11222;50.872;4.312;2023-02-07T14:34:23;6.70;99.90
22112;DHT22;11222;50.872;4.312;2023-02-07T14:36:53;6.70;99.90
22112;DHT22;11222;50.872;4.312;2023-02-07T14:41:50;6.70;99.90
22112;DHT22;11222;50.872;4.312;2023-02-07T14:44:36;6.70;99.90
22112;DHT22;11222;50.872;4.312;2023-02-07T14:47:05;6.80;99.90
22112;DHT22;11222;50.872;4.312;2023-02-07T14:49:46;6.70;99.90
22112;DHT22;11222;50.872;4.312;2023-02-07T14:52:26;6.70;99.90
22112;DHT22;11222;50.872;4.312;2023-02-07T14:55:20;6.70;99.90
22112;DHT22;11222;50.872;4.312;2023-02-07T14:57:55;6.60;99.90
22112;DHT22;11222;50.872;4.312;2023-02-07T15:00:39;6.70;99.90
22112;DHT22;11222;50.872;4.312;2023-02-07T15:03:14;6.60;99.90
22112;DHT22;11222;50.872;4.312;2023-02-07T15:06:01;6.70;99.90
22112;DHT22;11222;50.872;4.312;2023-02-07T15:08:31;6.70;99.90
22112;DHT22;11222;50.872;4.312;2023-02-07T15:16:04;6.70;99.90
22112;DHT22;11222;50.872;4.312;2023-02-07T15:18:35;6.60;99.90
22112;DHT22;11222;50.872;4.312;2023-02-07T15:21:03;6.60;99.90
22112;DHT22;11222;50.872;4.312;2023-02-07T15:23:29;6.60;99.90
22112;DHT22;11222;50.872;4.312;2023-02-07T15:26:05;6.60;99.90
22112;DHT22;11222;50.872;4.312;2023-02-07T15:28:31;6.60;99.90
22112;DHT22;11222;50.872;4.312;2023-02-07T15:33:48;6.60;99.90
22112;DHT22;11222;50.872;4.312;2023-02-07T15:36:36;6.50;99.90
22112;DHT22;11222;50.872;4.312;2023-02-07T15:39:05;6.50;99.90
22112;DHT22;11222;50.872;4.312;2023-02-07T15:41:32;6.40;99.90
22112;DHT22;11222;50.872;4.312;2023-02-07T15:44:17;6.40;99.90
22112;DHT22;11222;50.872;4.312;2023-02-07T15:49:34;6.50;99.90
22112;DHT22;11222;50.872;4.312;2023-02-07T15:54:43;6.50;99.90
22112;DHT22;11222;50.872;4.312;2023-02-07T15:57:18;6.50;99.90
22112;DHT22;11222;50.872;4.312;2023-02-07T15:59:48;6.50;99.90
22112;DHT22;11222;50.872;4.312;2023-02-07T16:02:36;6.40;99.90
22112;DHT22;11222;50.872;4.312;2023-02-07T16:05:15;6.40;99.90
22112;DHT22;11222;50.872;4.312;2023-02-07T16:07:44;6.40;99.90
22112;DHT22;11222;50.872;4.312;2023-02-07T16:10:33;6.40;99.90
22112;DHT22;11222;50.872;4.312;2023-02-07T16:13:10;6.40;99.90
22112;DHT22;11222;50.872;4.312;2023-02-07T16:15:39;6.30;99.90
22112;DHT22;11222;50.872;4.312;2023-02-07T16:18:40;6.30;99.90
22112;DHT22;11222;50.872;4.312;2023-02-07T16:24:13;6.30;99.90
22112;DHT22;11222;50.872;4.312;2023-02-07T16:26:40;6.20;99.90
22112;DHT22;11222;50.872;4.312;2023-02-07T16:29:06;6.20;99.90
22112;DHT22;11222;50.872;4.312;2023-02-07T16:31:33;6.20;99.90
22112;DHT22;11222;50.872;4.312;2023-02-07T16:33:59;6.10;99.90
22112;DHT22;11222;50.872;4.312;2023-02-07T16:36:25;6.10;99.90
22112;DHT22;11222;50.872;4.312;2023-02-07T16:38:50;6.10;99.90
22112;DHT22;11222;50.872;4.312;2023-02-07T16:43:45;6.00;99.90
22112;DHT22;11222;50.872;4.312;2023-02-07T16:46:11;6.10;99.90
22112;DHT22;11222;50.872;4.312;2023-02-07T16:48:36;6.10;99.90
22112;DHT22;11222;50.872;4.312;2023-02-07T16:51:02;6.10;99.90
22112;DHT22;11222;50.872;4.312;2023-02-07T16:53:28;6.10;99.90
22112;DHT22;11222;50.872;4.312;2023-02-07T16:55:55;6.00;99.90
22112;DHT22;11222;50.872;4.312;2023-02-07T16:58:27;6.00;99.90
22112;DHT22;11222;50.872;4.312;2023-02-07T17:00:53;6.00;99.90
22112;DHT22;11222;50.872;4.312;2023-02-07T17:03:21;6.00;99.90
22112;DHT22;11222;50.872;4.312;2023-02-07T17:05:47;6.00;99.90
22112;DHT22;11222;50.872;4.312;2023-02-07T17:08:18;6.10;99.90
22112;DHT22;11222;50.872;4.312;2023-02-07T17:10:51;6.20;99.90
22112;DHT22;11222;50.872;4.312;2023-02-07T17:13:18;6.30;99.90
22112;DHT22;11222;50.872;4.312;2023-02-07T17:15:44;6.30;99.90
22112;DHT22;11222;50.872;4.312;2023-02-07T17:18:11;6.30;99.90
22112;DHT22;11222;50.872;4.312;2023-02-07T17:20:37;6.10;99.90
22112;DHT22;11222;50.872;4.312;2023-02-07T17:23:04;5.90;99.90
22112;DHT22;11222;50.872;4.312;2023-02-07T17:25:31;5.80;99.90
22112;DHT22;11222;50.872;4.312;2023-02-07T17:27:57;5.80;99.90
22112;DHT22;11222;50.872;4.312;2023-02-07T17:30:26;5.70;99.90
22112;DHT22;11222;50.872;4.312;2023-02-07T17:32:53;5.60;99.90
22112;DHT22;11222;50.872;4.312;2023-02-07T17:35:19;5.60;99.90
22112;DHT22;11222;50.872;4.312;2023-02-07T17:37:46;5.60;99.90
22112;DHT22;11222;50.872;4.312;2023-02-07T17:42:40;5.50;99.90
22112;DHT22;11222;50.872;4.312;2023-02-07T17:45:06;5.50;99.90
22112;DHT22;11222;50.872;4.312;2023-02-07T17:47:31;5.50;99.90
22112;DHT22;11222;50.872;4.312;2023-02-07T17:49:57;5.50;99.90
22112;DHT22;11222;50.872;4.312;2023-02-07T17:52:23;5.50;99.90
22112;DHT22;11222;50.872;4.312;2023-02-07T17:54:48;5.50;99.90
22112;DHT22;11222;50.872;4.312;2023-02-07T17:57:14;5.40;99.90
22112;DHT22;11222;50.872;4.312;2023-02-07T17:59:40;5.40;99.90
22112;DHT22;11222;50.872;4.312;2023-02-07T18:02:06;5.50;99.90
22112;DHT22;11222;50.872;4.312;2023-02-07T18:04:31;5.50;99.90
22112;DHT22;11222;50.872;4.312;2023-02-07T18:06:57;5.40;99.90
22112;DHT22;11222;50.872;4.312;2023-02-07T18:09:23;5.40;99.90
22112;DHT22;11222;50.872;4.312;2023-02-07T18:11:49;5.30;99.90
22112;DHT22;11222;50.872;4.312;2023-02-07T18:14:15;5.20;99.90
22112;DHT22;11222;50.872;4.312;2023-02-07T18:16:41;5.20;99.90
22112;DHT22;11222;50.872;4.312;2023-02-07T18:19:07;5.10;99.90
22112;DHT22;11222;50.872;4.312;2023-02-07T18:21:35;5.10;99.90
22112;DHT22;11222;50.872;4.312;2023-02-07T18:24:02;5.10;99.90
22112;DHT22;11222;50.872;4.312;2023-02-07T18:26:28;5.20;99.90
22112;DHT22;11222;50.872;4.312;2023-02-07T18:28:54;5.20;99.90
22112;DHT22;11222;50.872;4.312;2023-02-07T18:31:22;5.30;99.90
22112;DHT22;11222;50.872;4.312;2023-02-07T18:33:49;5.20;99.90